Time;durP1;ratioP1;P1;durP2;ratioP2;P2;SDS_P1;SDS_P2;PMS_P1;PMS_P2;Temp;Humidity;BMP_temperature;BMP_pressure;BME280_temperature;BME280_humidity;BME280_pressure;Samples;Min_cycle;Max_cycle;Signal;HPM_P1;HPM_P2
2023/06/29 00:00:05;;;;;;;31.58;25.58;;;;;;;;;;4777756;29;20054;-86
2023/06/29 00:02:32;;;;;;;29.75;24.05;;;;;;;;;;4797438;29;20495;-85
2023/06/29 00:04:58;;;;;;;34.53;24.45;;;;;;;;;;4798488;29;20060;-85
2023/06/29 00:07:25;;;;;;;32.75;26.15;;;;;;;;;;4785795;29;20144;-85
2023/06/29 00:09:52;;;;;;;26.85;23.25;;;;;;;;;;4797354;29;20038;-85
2023/06/29 00:12:19;;;;;;;34.20;25.98;;;;;;;;;;4801367;29;20076;-85
2023/06/29 00:14:45;;;;;;;29.63;24.08;;;;;;;;;;4800895;29;20420;-85
2023/06/29 00:17:14;;;;;;;32.35;24.20;;;;;;;;;;4797248;29;20058;-86
2023/06/29 00:19:41;;;;;;;25.48;22.40;;;;;;;;;;4832416;29;20046;-86
2023/06/29 00:22:08;;;;;;;29.58;25.02;;;;;;;;;;4823362;29;20503;-86
2023/06/29 00:24:42;;;;;;;30.42;24.05;;;;;;;;;;4797638;29;20049;-86
2023/06/29 00:27:11;;;;;;;31.85;25.00;;;;;;;;;;4809556;29;20088;-86
2023/06/29 00:29:38;;;;;;;28.50;24.13;;;;;;;;;;4830539;29;20042;-86
2023/06/29 00:32:04;;;;;;;26.77;23.02;;;;;;;;;;4784406;29;20099;-86
2023/06/29 00:34:30;;;;;;;29.13;24.10;;;;;;;;;;4782644;29;20090;-85
2023/06/29 00:36:56;;;;;;;29.58;23.83;;;;;;;;;;4790481;29;20058;-86
2023/06/29 00:39:22;;;;;;;31.33;23.63;;;;;;;;;;4795069;29;20056;-85
2023/06/29 00:41:53;;;;;;;32.92;24.70;;;;;;;;;;4822651;29;20045;-85
2023/06/29 00:44:19;;;;;;;27.55;23.73;;;;;;;;;;4831535;29;20423;-86
2023/06/29 00:46:45;;;;;;;28.52;23.13;;;;;;;;;;4811462;29;20080;-85
2023/06/29 00:49:12;;;;;;;27.02;22.10;;;;;;;;;;4813046;29;20042;-85
2023/06/29 00:51:38;;;;;;;29.98;23.10;;;;;;;;;;4799806;29;20049;-85
2023/06/29 00:54:04;;;;;;;27.45;22.73;;;;;;;;;;4782874;29;20077;-85
2023/06/29 00:56:33;;;;;;;26.85;22.25;;;;;;;;;;4797596;29;20042;-85
2023/06/29 00:58:59;;;;;;;30.58;24.60;;;;;;;;;;4808592;29;20049;-85
2023/06/29 01:01:27;;;;;;;27.15;21.50;;;;;;;;;;4827510;29;20550;-85
2023/06/29 01:03:53;;;;;;;29.65;23.13;;;;;;;;;;4806951;29;20503;-85
2023/06/29 01:06:20;;;;;;;28.55;23.95;;;;;;;;;;4826231;29;20528;-85
2023/06/29 01:08:50;;;;;;;29.53;23.23;;;;;;;;;;4826137;29;20077;-86
2023/06/29 01:11:16;;;;;;;27.83;21.25;;;;;;;;;;4825445;29;20061;-85
2023/06/29 01:13:43;;;;;;;28.75;23.58;;;;;;;;;;4785285;29;20050;-85
2023/06/29 01:16:09;;;;;;;27.92;23.10;;;;;;;;;;4822413;29;20066;-85
2023/06/29 01:18:35;;;;;;;30.20;23.92;;;;;;;;;;4827314;29;20045;-85
2023/06/29 01:21:01;;;;;;;26.65;23.27;;;;;;;;;;4809032;29;20093;-85
2023/06/29 01:23:29;;;;;;;26.92;22.02;;;;;;;;;;4815536;29;20049;-85
2023/06/29 01:25:56;;;;;;;27.80;23.05;;;;;;;;;;4804359;29;20101;-86
2023/06/29 01:28:22;;;;;;;30.75;23.52;;;;;;;;;;4830270;29;20042;-85
2023/06/29 01:30:51;;;;;;;31.98;24.83;;;;;;;;;;4812403;29;20045;-86
2023/06/29 01:33:18;;;;;;;26.42;22.42;;;;;;;;;;4828924;29;20045;-85
2023/06/29 01:35:44;;;;;;;29.52;24.30;;;;;;;;;;4812253;29;20058;-85
2023/06/29 01:38:37;;;;;;;31.20;24.58;;;;;;;;;;4807418;29;20050;-85
2023/06/29 01:41:03;;;;;;;33.42;24.30;;;;;;;;;;4805982;29;20048;-85
2023/06/29 01:43:29;;;;;;;29.95;22.92;;;;;;;;;;4829488;29;20043;-85
2023/06/29 01:45:56;;;;;;;28.08;23.30;;;;;;;;;;4805443;29;20115;-85
2023/06/29 01:48:22;;;;;;;30.20;23.33;;;;;;;;;;4828424;29;20091;-85
2023/06/29 01:50:48;;;;;;;32.85;25.48;;;;;;;;;;4826850;29;20473;-85
2023/06/29 01:53:14;;;;;;;30.10;24.45;;;;;;;;;;4825942;29;20041;-85
2023/06/29 01:55:40;;;;;;;27.90;22.73;;;;;;;;;;4822094;29;20061;-85
2023/06/29 01:58:06;;;;;;;32.35;23.98;;;;;;;;;;4818219;29;20045;-85
2023/06/29 02:00:32;;;;;;;30.70;25.40;;;;;;;;;;4820998;29;20531;-85
2023/06/29 02:02:58;;;;;;;30.67;23.80;;;;;;;;;;4815152;29;20516;-85
2023/06/29 02:05:25;;;;;;;28.63;25.60;;;;;;;;;;4796778;29;20061;-85
2023/06/29 02:07:51;;;;;;;28.45;23.55;;;;;;;;;;4821945;29;20057;-86
2023/06/29 02:10:17;;;;;;;32.83;24.98;;;;;;;;;;4800860;29;20112;-86
2023/06/29 02:12:43;;;;;;;32.50;25.80;;;;;;;;;;4825748;29;20056;-85
2023/06/29 02:15:09;;;;;;;33.22;26.27;;;;;;;;;;4818445;29;20094;-85
2023/06/29 02:17:35;;;;;;;30.08;23.83;;;;;;;;;;4804472;29;20046;-85
2023/06/29 02:20:01;;;;;;;32.30;27.35;;;;;;;;;;4788700;29;20043;-85
2023/06/29 02:22:27;;;;;;;33.72;26.80;;;;;;;;;;4796251;29;20046;-85
2023/06/29 02:24:53;;;;;;;29.75;24.80;;;;;;;;;;4793355;29;20050;-85
2023/06/29 02:27:19;;;;;;;27.83;24.73;;;;;;;;;;4825792;29;20144;-85
2023/06/29 02:29:45;;;;;;;27.67;23.30;;;;;;;;;;4831059;29;20053;-85
2023/06/29 02:32:11;;;;;;;33.80;26.20;;;;;;;;;;4816286;29;20168;-85
2023/06/29 02:34:37;;;;;;;30.65;25.58;;;;;;;;;;4822792;29;20110;-85
2023/06/29 02:37:04;;;;;;;31.60;25.38;;;;;;;;;;4803496;29;20054;-85
2023/06/29 02:39:30;;;;;;;33.55;25.23;;;;;;;;;;4825534;29;20128;-85
2023/06/29 02:41:56;;;;;;;33.70;24.15;;;;;;;;;;4816651;29;20041;-85
2023/06/29 02:44:22;;;;;;;32.63;26.75;;;;;;;;;;4796429;29;20098;-85
2023/06/29 02:46:48;;;;;;;24.30;21.55;;;;;;;;;;4801999;29;20058;-85
2023/06/29 02:49:15;;;;;;;30.95;26.10;;;;;;;;;;4796681;29;20088;-85
2023/06/29 02:51:41;;;;;;;30.42;25.15;;;;;;;;;;4800084;29;20041;-85
2023/06/29 02:54:07;;;;;;;33.80;25.98;;;;;;;;;;4825968;29;21812;-85
2023/06/29 02:56:33;;;;;;;27.58;24.33;;;;;;;;;;4827250;29;20549;-85
2023/06/29 02:59:00;;;;;;;31.83;25.35;;;;;;;;;;4800130;29;20069;-86
2023/06/29 03:01:26;;;;;;;28.15;24.63;;;;;;;;;;4812543;29;20038;-86
2023/06/29 03:03:52;;;;;;;30.02;24.20;;;;;;;;;;4816019;29;20131;-86
2023/06/29 03:06:18;;;;;;;28.52;25.15;;;;;;;;;;4809051;29;20521;-85
2023/06/29 03:08:44;;;;;;;29.10;24.13;;;;;;;;;;4826221;29;20798;-85
2023/06/29 03:11:10;;;;;;;28.40;24.63;;;;;;;;;;4803079;29;20041;-86
2023/06/29 03:13:36;;;;;;;31.33;25.88;;;;;;;;;;4826201;29;20172;-85
2023/06/29 03:16:02;;;;;;;31.67;25.77;;;;;;;;;;4798262;29;20174;-85
2023/06/29 03:18:28;;;;;;;33.95;26.25;;;;;;;;;;4800078;29;20042;-85
2023/06/29 03:20:54;;;;;;;27.90;23.65;;;;;;;;;;4817401;29;20054;-86
2023/06/29 03:23:21;;;;;;;27.23;23.25;;;;;;;;;;4807811;29;20460;-85
2023/06/29 03:25:49;;;;;;;30.80;24.83;;;;;;;;;;4812250;29;20054;-86
2023/06/29 03:28:15;;;;;;;28.75;24.70;;;;;;;;;;4806828;29;20042;-85
2023/06/29 03:30:41;;;;;;;30.48;24.13;;;;;;;;;;4779131;29;20395;-85
2023/06/29 03:33:08;;;;;;;33.13;25.80;;;;;;;;;;4806903;29;21629;-85
2023/06/29 03:35:34;;;;;;;33.25;26.38;;;;;;;;;;4778615;29;20050;-85
2023/06/29 03:38:00;;;;;;;32.50;26.23;;;;;;;;;;4795115;29;20065;-85
2023/06/29 03:40:26;;;;;;;30.58;26.00;;;;;;;;;;4812049;29;20044;-85
2023/06/29 03:42:53;;;;;;;29.45;25.75;;;;;;;;;;4806254;29;20077;-85
2023/06/29 03:45:19;;;;;;;31.75;25.65;;;;;;;;;;4789445;29;20512;-85
2023/06/29 03:47:45;;;;;;;33.28;25.83;;;;;;;;;;4795033;29;21110;-85
2023/06/29 03:50:11;;;;;;;27.65;22.80;;;;;;;;;;4776720;29;20066;-85
2023/06/29 03:52:37;;;;;;;28.88;23.98;;;;;;;;;;4814548;29;20041;-85
2023/06/29 03:55:03;;;;;;;30.05;23.60;;;;;;;;;;4786780;29;20396;-85
2023/06/29 03:57:29;;;;;;;29.83;25.90;;;;;;;;;;4784691;29;20120;-85
2023/06/29 03:59:55;;;;;;;30.02;25.10;;;;;;;;;;4806428;29;20054;-85
2023/06/29 04:02:21;;;;;;;32.08;24.08;;;;;;;;;;4819929;29;20731;-85
2023/06/29 04:04:51;;;;;;;33.67;24.55;;;;;;;;;;4810777;29;20124;-86
2023/06/29 04:07:17;;;;;;;30.73;24.52;;;;;;;;;;4798599;29;20526;-85
2023/06/29 04:09:43;;;;;;;26.13;20.92;;;;;;;;;;4803208;29;20050;-85
2023/06/29 04:12:09;;;;;;;33.95;26.00;;;;;;;;;;4785163;29;20050;-85
2023/06/29 04:14:35;;;;;;;28.63;24.42;;;;;;;;;;4789704;29;20050;-85
2023/06/29 04:17:01;;;;;;;27.73;24.80;;;;;;;;;;4816944;29;20070;-86
2023/06/29 04:19:27;;;;;;;32.72;26.40;;;;;;;;;;4791479;29;20117;-86
2023/06/29 04:21:53;;;;;;;30.65;24.38;;;;;;;;;;4781463;29;20049;-86
2023/06/29 04:24:19;;;;;;;32.72;25.80;;;;;;;;;;4801228;29;20094;-85
2023/06/29 04:26:45;;;;;;;29.67;24.35;;;;;;;;;;4800828;29;20069;-85
2023/06/29 04:29:11;;;;;;;27.63;23.27;;;;;;;;;;4792559;29;20038;-85
2023/06/29 04:31:38;;;;;;;33.97;27.40;;;;;;;;;;4789522;29;20038;-85
2023/06/29 04:34:04;;;;;;;32.67;24.08;;;;;;;;;;4813146;29;20060;-85
2023/06/29 04:36:30;;;;;;;32.47;25.80;;;;;;;;;;4814091;29;20049;-86
2023/06/29 04:38:56;;;;;;;29.13;25.90;;;;;;;;;;4785283;29;20137;-86
2023/06/29 04:41:30;;;;;;;32.42;27.52;;;;;;;;;;4803376;29;20045;-86
2023/06/29 04:44:00;;;;;;;26.23;23.45;;;;;;;;;;4784843;29;20034;-85
2023/06/29 04:46:29;;;;;;;32.85;26.75;;;;;;;;;;4797608;29;20059;-85
2023/06/29 04:48:55;;;;;;;35.35;27.17;;;;;;;;;;4809562;29;20041;-86
2023/06/29 04:51:21;;;;;;;35.05;27.10;;;;;;;;;;4813760;29;20049;-85
2023/06/29 04:53:50;;;;;;;29.02;24.77;;;;;;;;;;4793519;29;20042;-85
2023/06/29 04:56:16;;;;;;;33.35;29.52;;;;;;;;;;4802162;29;20042;-86
2023/06/29 04:58:42;;;;;;;32.28;24.35;;;;;;;;;;4813316;29;20045;-85
2023/06/29 05:01:08;;;;;;;31.90;26.63;;;;;;;;;;4792744;29;20500;-85
2023/06/29 05:03:35;;;;;;;32.45;25.25;;;;;;;;;;4803272;29;20042;-86
2023/06/29 05:06:02;;;;;;;30.48;27.20;;;;;;;;;;4825976;29;20046;-85
2023/06/29 05:08:28;;;;;;;32.22;25.80;;;;;;;;;;4819166;29;20410;-85
2023/06/29 05:10:54;;;;;;;33.90;28.77;;;;;;;;;;4810652;29;20062;-85
2023/06/29 05:13:20;;;;;;;34.17;27.75;;;;;;;;;;4784804;29;20506;-86
2023/06/29 05:15:49;;;;;;;29.58;25.58;;;;;;;;;;4783594;29;20487;-86
2023/06/29 05:18:15;;;;;;;33.08;27.35;;;;;;;;;;4810402;29;20470;-85
2023/06/29 05:20:41;;;;;;;34.55;26.05;;;;;;;;;;4829095;29;20118;-86
2023/06/29 05:23:09;;;;;;;34.10;27.58;;;;;;;;;;4788657;29;20802;-85
2023/06/29 05:25:36;;;;;;;32.30;26.33;;;;;;;;;;4798311;29;20111;-85
2023/06/29 05:28:02;;;;;;;32.07;27.53;;;;;;;;;;4787526;29;21349;-85
2023/06/29 05:30:28;;;;;;;32.15;27.15;;;;;;;;;;4831458;29;20802;-85
2023/06/29 05:32:55;;;;;;;34.75;28.98;;;;;;;;;;4805266;29;20553;-85
2023/06/29 05:35:22;;;;;;;31.73;26.13;;;;;;;;;;4799028;29;20193;-85
2023/06/29 05:37:48;;;;;;;30.95;27.30;;;;;;;;;;4825566;29;20057;-85
2023/06/29 05:40:15;;;;;;;35.30;28.20;;;;;;;;;;4799046;29;20053;-85
2023/06/29 05:42:41;;;;;;;35.42;26.83;;;;;;;;;;4828658;29;20431;-85
2023/06/29 05:45:07;;;;;;;32.75;28.50;;;;;;;;;;4793630;29;21633;-85
2023/06/29 05:47:33;;;;;;;38.75;29.70;;;;;;;;;;4789061;29;20239;-85
2023/06/29 05:49:59;;;;;;;32.92;27.15;;;;;;;;;;4792969;29;20061;-85
2023/06/29 05:52:25;;;;;;;36.50;27.17;;;;;;;;;;4784503;29;20038;-85
2023/06/29 05:54:52;;;;;;;30.45;25.45;;;;;;;;;;4807007;29;20623;-85
2023/06/29 05:57:18;;;;;;;31.42;26.70;;;;;;;;;;4811171;29;20042;-85
2023/06/29 05:59:44;;;;;;;31.42;25.55;;;;;;;;;;4805933;29;20047;-85
2023/06/29 06:02:10;;;;;;;31.80;27.85;;;;;;;;;;4777417;29;20045;-85
2023/06/29 06:04:36;;;;;;;32.95;26.08;;;;;;;;;;4800428;29;20407;-85
2023/06/29 06:07:02;;;;;;;31.67;24.42;;;;;;;;;;4777237;29;20045;-85
2023/06/29 06:09:29;;;;;;;31.80;25.50;;;;;;;;;;4826418;29;20069;-85
2023/06/29 06:11:55;;;;;;;34.50;27.17;;;;;;;;;;4792530;29;20451;-85
2023/06/29 06:14:21;;;;;;;31.45;25.10;;;;;;;;;;4785545;29;20042;-85
2023/06/29 06:16:50;;;;;;;27.63;23.45;;;;;;;;;;4779037;29;20099;-85
2023/06/29 06:19:16;;;;;;;30.38;23.95;;;;;;;;;;4823367;29;20085;-84
2023/06/29 06:21:42;;;;;;;27.60;23.58;;;;;;;;;;4819246;29;20049;-85
2023/06/29 06:24:08;;;;;;;27.50;22.83;;;;;;;;;;4801369;29;20109;-84
2023/06/29 06:26:34;;;;;;;27.25;24.02;;;;;;;;;;4773317;29;20180;-85
2023/06/29 06:29:00;;;;;;;29.83;24.05;;;;;;;;;;4802533;29;20077;-84
2023/06/29 06:31:26;;;;;;;29.58;23.83;;;;;;;;;;4800524;29;20061;-85
2023/06/29 06:33:56;;;;;;;28.38;23.77;;;;;;;;;;4767769;29;20236;-85
2023/06/29 06:36:23;;;;;;;27.75;22.52;;;;;;;;;;4773797;29;20052;-85
2023/06/29 06:38:49;;;;;;;29.63;21.77;;;;;;;;;;4781838;29;20064;-86
2023/06/29 06:41:15;;;;;;;27.75;22.50;;;;;;;;;;4822523;29;20049;-85
2023/06/29 06:43:41;;;;;;;27.20;22.67;;;;;;;;;;4805632;29;20046;-85
2023/06/29 06:46:08;;;;;;;26.50;21.00;;;;;;;;;;4804563;29;20050;-85
2023/06/29 06:48:34;;;;;;;26.58;22.02;;;;;;;;;;4827220;29;20525;-85
2023/06/29 06:51:00;;;;;;;28.60;21.80;;;;;;;;;;4829013;29;20057;-85
2023/06/29 06:53:26;;;;;;;26.20;21.77;;;;;;;;;;4835550;29;20471;-85
2023/06/29 06:55:52;;;;;;;25.05;21.58;;;;;;;;;;4814191;29;20510;-85
2023/06/29 06:58:18;;;;;;;27.20;22.23;;;;;;;;;;4835136;29;20124;-85
2023/06/29 07:00:44;;;;;;;30.00;22.42;;;;;;;;;;4832454;29;20050;-85
2023/06/29 07:03:10;;;;;;;30.45;22.77;;;;;;;;;;4833317;29;20099;-85
2023/06/29 07:05:36;;;;;;;30.73;23.02;;;;;;;;;;4836347;29;20042;-85
2023/06/29 07:08:02;;;;;;;25.73;22.05;;;;;;;;;;4812186;29;20479;-85
2023/06/29 07:10:28;;;;;;;30.42;23.33;;;;;;;;;;4819048;29;20136;-85
2023/06/29 07:12:54;;;;;;;29.63;23.42;;;;;;;;;;4810610;29;20102;-85
2023/06/29 07:15:20;;;;;;;30.00;23.02;;;;;;;;;;4788934;29;20079;-84
2023/06/29 07:17:49;;;;;;;30.10;23.63;;;;;;;;;;4790199;29;20042;-84
2023/06/29 07:20:15;;;;;;;32.25;24.02;;;;;;;;;;4829962;29;20045;-85
2023/06/29 07:22:41;;;;;;;29.95;23.48;;;;;;;;;;4834609;29;20042;-84
2023/06/29 07:25:08;;;;;;;33.92;25.13;;;;;;;;;;4825338;29;20702;-85
2023/06/29 07:27:34;;;;;;;29.83;24.30;;;;;;;;;;4833406;29;20049;-85
2023/06/29 07:30:00;;;;;;;30.35;23.90;;;;;;;;;;4824249;29;20403;-84
2023/06/29 07:32:27;;;;;;;25.75;22.92;;;;;;;;;;4831303;29;20396;-84
2023/06/29 07:34:53;;;;;;;31.02;25.08;;;;;;;;;;4830466;29;20053;-85
2023/06/29 07:37:21;;;;;;;33.40;25.35;;;;;;;;;;4834081;29;20061;-84
2023/06/29 07:39:51;;;;;;;35.35;26.02;;;;;;;;;;4796921;29;20041;-84
2023/06/29 07:42:17;;;;;;;28.10;22.23;;;;;;;;;;4790190;29;20046;-84
2023/06/29 07:44:43;;;;;;;32.78;25.20;;;;;;;;;;4841413;29;20053;-84
2023/06/29 07:47:09;;;;;;;31.83;25.42;;;;;;;;;;4817780;29;20676;-84
2023/06/29 07:49:35;;;;;;;32.35;25.55;;;;;;;;;;4821395;29;20554;-85
2023/06/29 07:52:01;;;;;;;31.48;25.05;;;;;;;;;;4833093;29;20136;-84
2023/06/29 07:54:27;;;;;;;34.00;26.02;;;;;;;;;;4835668;29;20556;-85
2023/06/29 07:56:53;;;;;;;32.35;25.60;;;;;;;;;;4837974;29;20399;-85
2023/06/29 07:59:19;;;;;;;34.40;26.75;;;;;;;;;;4839373;29;20076;-85
2023/06/29 08:01:50;;;;;;;37.30;27.98;;;;;;;;;;4790709;29;20034;-85
2023/06/29 08:04:16;;;;;;;35.72;29.02;;;;;;;;;;4817499;29;20064;-85
2023/06/29 08:06:43;;;;;;;34.20;28.27;;;;;;;;;;4833689;29;20053;-85
2023/06/29 08:09:10;;;;;;;36.40;30.08;;;;;;;;;;4830132;29;20065;-85
2023/06/29 08:11:36;;;;;;;36.28;28.52;;;;;;;;;;4840431;29;20046;-85
2023/06/29 08:14:02;;;;;;;34.38;28.17;;;;;;;;;;4803019;29;20079;-85
2023/06/29 08:16:28;;;;;;;34.72;26.88;;;;;;;;;;4805321;29;20604;-85
2023/06/29 08:18:54;;;;;;;36.55;28.48;;;;;;;;;;4828886;29;20444;-85
2023/06/29 08:21:20;;;;;;;33.72;26.55;;;;;;;;;;4807695;29;20046;-85
2023/06/29 08:23:48;;;;;;;33.90;26.92;;;;;;;;;;4838156;29;20068;-85
2023/06/29 08:26:14;;;;;;;33.45;26.58;;;;;;;;;;4819594;29;20400;-84
2023/06/29 08:28:41;;;;;;;32.28;25.83;;;;;;;;;;4821216;29;20045;-85
2023/06/29 08:31:07;;;;;;;30.08;26.05;;;;;;;;;;4808651;29;20046;-85
2023/06/29 08:33:33;;;;;;;40.17;28.38;;;;;;;;;;4829614;29;20053;-85
2023/06/29 08:35:59;;;;;;;31.70;26.38;;;;;;;;;;4816835;29;20038;-85
2023/06/29 08:38:25;;;;;;;35.80;27.25;;;;;;;;;;4834800;29;20069;-85
2023/06/29 08:40:51;;;;;;;33.70;27.10;;;;;;;;;;4815298;29;20053;-85
2023/06/29 08:43:20;;;;;;;35.08;27.20;;;;;;;;;;4800260;29;20038;-85
2023/06/29 08:45:49;;;;;;;35.35;27.70;;;;;;;;;;4807034;29;20127;-85
2023/06/29 08:48:16;;;;;;;34.13;27.90;;;;;;;;;;4802707;29;20072;-85
2023/06/29 08:50:44;;;;;;;33.35;26.08;;;;;;;;;;4794099;29;20492;-85
2023/06/29 08:53:11;;;;;;;33.05;26.98;;;;;;;;;;4784738;29;20042;-85
2023/06/29 08:55:37;;;;;;;31.45;25.02;;;;;;;;;;4788885;29;20049;-85
2023/06/29 08:58:03;;;;;;;34.90;26.60;;;;;;;;;;4784278;29;20057;-85
2023/06/29 09:00:29;;;;;;;32.72;26.38;;;;;;;;;;4803680;29;20042;-85
2023/06/29 09:02:55;;;;;;;35.05;27.58;;;;;;;;;;4829620;29;20403;-85
2023/06/29 09:05:21;;;;;;;31.25;26.38;;;;;;;;;;4833136;29;20037;-84
2023/06/29 09:07:50;;;;;;;32.92;25.77;;;;;;;;;;4819559;29;20050;-85
2023/06/29 09:10:16;;;;;;;33.42;27.13;;;;;;;;;;4818815;29;20679;-85
2023/06/29 09:12:42;;;;;;;31.60;24.20;;;;;;;;;;4813627;29;20053;-85
2023/06/29 09:15:13;;;;;;;32.65;25.40;;;;;;;;;;4831581;29;20050;-85
2023/06/29 09:17:44;;;;;;;36.28;25.73;;;;;;;;;;4815269;29;20053;-85
2023/06/29 09:20:13;;;;;;;31.95;26.05;;;;;;;;;;4815814;29;20042;-85
2023/06/29 09:22:39;;;;;;;35.83;25.83;;;;;;;;;;4820078;29;20089;-85
2023/06/29 09:25:09;;;;;;;33.90;25.55;;;;;;;;;;4807924;29;20049;-85
2023/06/29 09:27:35;;;;;;;30.50;23.83;;;;;;;;;;4805837;29;20499;-85
2023/06/29 09:30:02;;;;;;;26.30;22.25;;;;;;;;;;4824974;29;20052;-85
2023/06/29 09:32:31;;;;;;;29.15;22.45;;;;;;;;;;4836260;29;20045;-85
2023/06/29 09:35:05;;;;;;;27.25;23.40;;;;;;;;;;4822335;29;20056;-85
2023/06/29 09:37:31;;;;;;;30.50;23.75;;;;;;;;;;4794452;29;20105;-85
2023/06/29 09:39:57;;;;;;;30.05;21.90;;;;;;;;;;4815508;29;20041;-85
2023/06/29 09:42:23;;;;;;;25.35;22.13;;;;;;;;;;4835787;29;20524;-85
2023/06/29 09:44:49;;;;;;;27.63;21.83;;;;;;;;;;4827784;29;20049;-85
2023/06/29 09:47:15;;;;;;;29.10;22.38;;;;;;;;;;4821326;29;20046;-85
2023/06/29 09:49:48;;;;;;;27.42;22.30;;;;;;;;;;4820157;29;20042;-86
2023/06/29 09:57:22;;;;;;;28.20;22.20;;;;;;;;;;4856908;29;20143;-86
2023/06/29 09:59:49;;;;;;;24.80;21.88;;;;;;;;;;4800193;29;20038;-85
2023/06/29 10:02:17;;;;;;;26.63;21.40;;;;;;;;;;4824523;29;20521;-85
2023/06/29 10:04:44;;;;;;;31.10;24.40;;;;;;;;;;4809110;29;20093;-85
2023/06/29 10:07:16;;;;;;;28.92;23.48;;;;;;;;;;4816121;29;20145;-86
2023/06/29 10:09:46;;;;;;;26.95;22.52;;;;;;;;;;4841988;29;20128;-85
2023/06/29 10:12:12;;;;;;;28.17;23.40;;;;;;;;;;4830286;29;20487;-85
2023/06/29 10:14:38;;;;;;;27.02;22.08;;;;;;;;;;4805370;29;20051;-86
2023/06/29 10:17:08;;;;;;;27.20;23.10;;;;;;;;;;4798992;29;20463;-85
2023/06/29 10:19:34;;;;;;;27.17;22.92;;;;;;;;;;4811866;29;20037;-85
2023/06/29 10:22:08;;;;;;;27.33;22.30;;;;;;;;;;4808369;29;20132;-86
2023/06/29 10:24:41;;;;;;;28.00;22.40;;;;;;;;;;4826730;29;20545;-85
2023/06/29 10:27:07;;;;;;;27.00;21.20;;;;;;;;;;4838016;29;21408;-84
2023/06/29 10:29:46;;;;;;;25.48;21.15;;;;;;;;;;4855689;29;20049;-84
2023/06/29 10:32:31;;;;;;;28.67;22.50;;;;;;;;;;4817593;29;20052;-84
2023/06/29 10:35:00;;;;;;;28.50;22.63;;;;;;;;;;4849941;29;20051;-85
2023/06/29 10:37:30;;;;;;;27.60;22.83;;;;;;;;;;4812812;29;20041;-85
2023/06/29 10:39:58;;;;;;;31.20;24.35;;;;;;;;;;4839015;29;20047;-85
2023/06/29 10:42:24;;;;;;;32.15;24.23;;;;;;;;;;4838277;29;20041;-84
2023/06/29 10:44:50;;;;;;;29.52;24.40;;;;;;;;;;4851891;29;20055;-85
2023/06/29 10:47:27;;;;;;;28.88;24.25;;;;;;;;;;4817219;29;20044;-85
2023/06/29 10:50:21;;;;;;;29.08;23.98;;;;;;;;;;4803257;29;20038;-85
2023/06/29 10:52:50;;;;;;;29.08;23.67;;;;;;;;;;4852166;29;20057;-84
2023/06/29 10:55:21;;;;;;;28.05;23.00;;;;;;;;;;4850495;29;20082;-85
2023/06/29 10:57:49;;;;;;;29.52;23.58;;;;;;;;;;4822769;29;20041;-85
2023/06/29 11:00:15;;;;;;;28.08;23.50;;;;;;;;;;4823654;29;20124;-85
2023/06/29 11:02:44;;;;;;;30.65;24.35;;;;;;;;;;4824940;29;20051;-85
2023/06/29 11:05:14;;;;;;;28.30;24.58;;;;;;;;;;4819168;29;20558;-85
2023/06/29 11:07:40;;;;;;;31.08;25.05;;;;;;;;;;4854687;29;20047;-85
2023/06/29 11:10:06;;;;;;;32.53;25.42;;;;;;;;;;4829695;29;20411;-85
2023/06/29 11:12:32;;;;;;;29.48;24.63;;;;;;;;;;4849159;29;20075;-85
2023/06/29 11:14:58;;;;;;;31.52;23.98;;;;;;;;;;4856721;29;20056;-85
2023/06/29 11:17:25;;;;;;;28.10;23.30;;;;;;;;;;4858057;29;20037;-85
2023/06/29 11:19:51;;;;;;;31.88;25.35;;;;;;;;;;4840112;29;20040;-85
2023/06/29 11:22:20;;;;;;;32.60;23.90;;;;;;;;;;4854283;29;20045;-85
2023/06/29 11:24:46;;;;;;;30.65;23.50;;;;;;;;;;4839591;29;20036;-85
2023/06/29 11:27:18;;;;;;;29.85;25.55;;;;;;;;;;4829518;29;20062;-85
2023/06/29 11:29:45;;;;;;;30.23;24.83;;;;;;;;;;4810600;29;20060;-85
2023/06/29 11:32:12;;;;;;;32.13;25.85;;;;;;;;;;4820998;29;20044;-85
2023/06/29 11:34:38;;;;;;;31.05;25.42;;;;;;;;;;4819622;29;20502;-85
2023/06/29 11:37:05;;;;;;;30.50;25.65;;;;;;;;;;4817454;29;20061;-85
2023/06/29 11:39:31;;;;;;;33.70;26.20;;;;;;;;;;4825843;29;20038;-85
2023/06/29 11:41:57;;;;;;;30.15;25.55;;;;;;;;;;4808680;29;20037;-85
2023/06/29 11:44:23;;;;;;;31.58;24.67;;;;;;;;;;4809237;29;20079;-85
2023/06/29 11:46:49;;;;;;;34.88;26.98;;;;;;;;;;4808196;29;20487;-86
2023/06/29 11:49:15;;;;;;;30.40;25.80;;;;;;;;;;4841407;29;20064;-86
2023/06/29 11:51:42;;;;;;;33.58;26.05;;;;;;;;;;4820883;29;24034;-85
2023/06/29 11:54:08;;;;;;;35.80;27.55;;;;;;;;;;4833883;29;22482;-85
2023/06/29 11:56:40;;;;;;;30.58;25.48;;;;;;;;;;4839469;29;20106;-86
2023/06/29 11:59:06;;;;;;;29.00;24.30;;;;;;;;;;4835912;29;20053;-85
2023/06/29 12:01:32;;;;;;;27.20;24.05;;;;;;;;;;4859100;29;20402;-85
2023/06/29 12:03:58;;;;;;;30.38;26.67;;;;;;;;;;4813952;29;20045;-85
2023/06/29 12:06:25;;;;;;;28.83;24.58;;;;;;;;;;4810762;29;20053;-86
2023/06/29 12:08:51;;;;;;;29.02;25.88;;;;;;;;;;4853784;29;20037;-85
2023/06/29 12:11:18;;;;;;;28.95;25.35;;;;;;;;;;4824763;29;20048;-85
2023/06/29 12:13:50;;;;;;;29.63;25.00;;;;;;;;;;4838397;29;20052;-85
2023/06/29 12:16:17;;;;;;;29.25;25.20;;;;;;;;;;4843885;29;20040;-85
2023/06/29 12:18:43;;;;;;;34.03;26.92;;;;;;;;;;4845416;29;20124;-86
2023/06/29 12:21:09;;;;;;;28.40;24.33;;;;;;;;;;4854918;29;20182;-85
2023/06/29 12:23:35;;;;;;;28.20;24.58;;;;;;;;;;4841294;29;20043;-85
2023/06/29 12:26:01;;;;;;;29.83;24.55;;;;;;;;;;4850230;29;20449;-85
2023/06/29 12:28:28;;;;;;;29.15;23.83;;;;;;;;;;4856264;29;20041;-85
2023/06/29 12:30:54;;;;;;;23.00;20.52;;;;;;;;;;4846273;29;20620;-85
2023/06/29 12:33:20;;;;;;;27.17;21.85;;;;;;;;;;4855611;29;20045;-85
2023/06/29 12:35:46;;;;;;;27.15;22.27;;;;;;;;;;4848593;29;20064;-85
2023/06/29 12:38:12;;;;;;;24.55;21.80;;;;;;;;;;4848036;29;20037;-86
2023/06/29 12:40:38;;;;;;;26.00;23.17;;;;;;;;;;4855947;29;20519;-85
2023/06/29 12:43:04;;;;;;;23.98;21.27;;;;;;;;;;4849819;29;20042;-86
2023/06/29 12:45:30;;;;;;;26.45;21.75;;;;;;;;;;4820122;29;20053;-85
2023/06/29 12:47:56;;;;;;;25.65;19.92;;;;;;;;;;4833128;29;20084;-85
2023/06/29 12:50:22;;;;;;;24.27;21.63;;;;;;;;;;4852130;29;20052;-85
2023/06/29 12:52:51;;;;;;;29.30;21.92;;;;;;;;;;4837055;29;20580;-86
2023/06/29 12:55:20;;;;;;;29.60;24.98;;;;;;;;;;4852379;29;20459;-85
2023/06/29 12:57:46;;;;;;;27.98;23.67;;;;;;;;;;4835224;29;20532;-84
2023/06/29 13:00:13;;;;;;;31.60;23.40;;;;;;;;;;4809609;29;20133;-85
2023/06/29 13:02:41;;;;;;;29.98;23.02;;;;;;;;;;4800645;29;20041;-85
2023/06/29 13:05:08;;;;;;;24.75;20.95;;;;;;;;;;4811767;29;22293;-85
2023/06/29 13:07:35;;;;;;;27.52;22.55;;;;;;;;;;4847665;29;20391;-85
2023/06/29 13:10:03;;;;;;;29.90;24.08;;;;;;;;;;4796834;29;20052;-85
2023/06/29 13:12:29;;;;;;;30.45;24.75;;;;;;;;;;4813355;29;20093;-85
2023/06/29 13:14:55;;;;;;;25.77;22.90;;;;;;;;;;4798448;29;20543;-85
2023/06/29 13:17:21;;;;;;;26.05;22.52;;;;;;;;;;4831977;29;20054;-85
2023/06/29 13:19:50;;;;;;;27.92;24.30;;;;;;;;;;4849930;29;20109;-85
2023/06/29 13:22:20;;;;;;;24.60;22.00;;;;;;;;;;4841200;29;20033;-85
2023/06/29 13:24:46;;;;;;;25.83;21.70;;;;;;;;;;4846289;29;20041;-84
2023/06/29 13:27:15;;;;;;;26.38;22.13;;;;;;;;;;4800925;29;20049;-84
2023/06/29 13:29:41;;;;;;;26.13;21.55;;;;;;;;;;4824676;29;20057;-84
2023/06/29 13:32:08;;;;;;;28.08;22.45;;;;;;;;;;4826791;29;21490;-84
2023/06/29 13:34:34;;;;;;;28.08;22.55;;;;;;;;;;4815989;29;20082;-84
2023/06/29 13:37:00;;;;;;;28.60;22.98;;;;;;;;;;4798303;29;20048;-84
2023/06/29 13:39:26;;;;;;;26.27;22.55;;;;;;;;;;4799774;29;20057;-84
2023/06/29 13:41:55;;;;;;;31.13;24.23;;;;;;;;;;4844930;29;20041;-84
2023/06/29 13:44:21;;;;;;;30.77;23.38;;;;;;;;;;4803600;29;20085;-84
2023/06/29 13:46:51;;;;;;;26.45;22.23;;;;;;;;;;4814737;29;20053;-84
2023/06/29 13:49:17;;;;;;;25.38;21.70;;;;;;;;;;4793888;29;20074;-84
2023/06/29 13:51:43;;;;;;;22.88;20.42;;;;;;;;;;4812722;29;20395;-84
2023/06/29 13:54:09;;;;;;;23.13;19.15;;;;;;;;;;4798970;29;20049;-84
2023/06/29 13:56:36;;;;;;;23.80;19.48;;;;;;;;;;4815501;29;20062;-84
2023/06/29 13:59:06;;;;;;;21.67;19.35;;;;;;;;;;4811049;29;20541;-84
2023/06/29 14:01:34;;;;;;;23.25;19.55;;;;;;;;;;4815332;29;20551;-84
2023/06/29 14:04:03;;;;;;;24.13;19.20;;;;;;;;;;4813096;29;20057;-84
2023/06/29 14:06:32;;;;;;;24.13;20.23;;;;;;;;;;4803713;29;20073;-84
2023/06/29 14:08:59;;;;;;;26.02;20.10;;;;;;;;;;4796314;29;20149;-85
2023/06/29 14:11:27;;;;;;;24.13;19.60;;;;;;;;;;4849062;29;20052;-84
2023/06/29 14:13:59;;;;;;;24.90;20.45;;;;;;;;;;4795087;29;20531;-85
2023/06/29 14:16:25;;;;;;;23.45;19.95;;;;;;;;;;4817712;29;20050;-84
2023/06/29 14:19:02;;;;;;;25.33;20.10;;;;;;;;;;4807771;29;20034;-84